createdAt,value
2019-03-01T00:01:15.691Z,61.00
2019-03-01T00:03:47.713Z,62.20
2019-03-01T00:06:26.531Z,63.52
2019-03-01T00:09:40.074Z,59.00
2019-03-01T00:12:50.501Z,58.90
2019-03-01T00:15:41.513Z,63.02
2019-03-01T00:18:36.056Z,60.07
2019-03-01T00:21:30.205Z,65.23
2019-03-01T00:24:41.844Z,60.77
2019-03-01T00:27:53.169Z,60.60
2019-03-01T00:30:46.830Z,61.70
2019-03-01T00:34:07.293Z,60.13
2019-03-01T00:36:47.128Z,61.63
2019-03-01T00:39:35.683Z,67.00
2019-03-01T00:42:37.050Z,73.83
2019-03-01T00:45:07.689Z,72.67
2019-03-01T00:47:38.241Z,63.17
2019-03-01T00:50:08.765Z,64.67
2019-03-01T00:52:40.421Z,61.83
2019-03-01T00:55:10.889Z,59.60
2019-03-01T00:57:41.439Z,63.93
2019-03-01T01:00:18.614Z,62.38
2019-03-01T01:02:49.916Z,64.47
2019-03-01T01:05:21.056Z,64.15
2019-03-01T01:07:53.320Z,64.33
2019-03-01T01:10:40.048Z,66.07
2019-03-01T01:13:11.485Z,62.43
2019-03-01T01:15:42.616Z,54.13
2019-03-01T01:18:13.425Z,55.60
2019-03-01T01:20:44.310Z,51.43
2019-03-01T01:23:15.244Z,51.33
2019-03-01T01:25:46.606Z,54.13
2019-03-01T01:28:17.418Z,51.63
2019-03-01T01:30:47.864Z,54.80
2019-03-01T01:33:18.761Z,57.38
2019-03-01T01:35:49.287Z,56.87
2019-03-01T01:38:21.175Z,59.55
2019-03-01T01:40:51.974Z,58.20
2019-03-01T01:43:22.482Z,62.95
2019-03-01T01:45:53.184Z,55.87
2019-03-01T01:48:23.934Z,55.78
2019-03-01T01:50:54.926Z,57.03
2019-03-01T01:53:25.654Z,62.25
2019-03-01T01:55:57.295Z,59.77
2019-03-01T01:58:27.682Z,57.83
2019-03-01T02:00:58.156Z,62.60
2019-03-01T02:03:28.789Z,61.90
2019-03-01T02:06:01.228Z,63.07
2019-03-01T02:08:32.992Z,65.00
2019-03-01T02:11:03.660Z,58.10
2019-03-01T02:13:34.267Z,63.73
2019-03-01T02:16:04.905Z,64.27
2019-03-01T02:18:36.026Z,65.47
2019-03-01T02:21:06.466Z,65.63
2019-03-01T02:23:37.044Z,66.40
2019-03-01T02:26:09.287Z,61.30
2019-03-01T02:28:41.305Z,63.47
2019-03-01T02:31:12.118Z,66.37
2019-03-01T02:33:42.776Z,69.80
2019-03-01T02:36:14.268Z,63.35
2019-03-01T02:38:44.807Z,65.47
2019-03-01T02:41:15.583Z,61.53
2019-03-01T02:43:46.265Z,65.50
2019-03-01T02:46:17.279Z,66.97
2019-03-01T02:48:47.799Z,65.53
2019-03-01T02:51:18.339Z,61.20
2019-03-01T02:53:49.173Z,67.77
2019-03-01T02:56:19.705Z,66.30
2019-03-01T02:58:50.120Z,66.17
2019-03-01T03:01:20.517Z,65.50
2019-03-01T03:03:52.083Z,66.23
2019-03-01T03:06:29.489Z,68.67
2019-03-01T03:09:00.029Z,69.53
2019-03-01T03:11:30.941Z,70.33
2019-03-01T03:14:01.762Z,67.23
2019-03-01T03:16:32.663Z,65.70
2019-03-01T03:19:03.200Z,66.67
2019-03-01T03:21:33.575Z,61.73
2019-03-01T03:24:04.193Z,64.33
2019-03-01T03:26:35.103Z,67.60
2019-03-01T03:29:05.743Z,61.33
2019-03-01T03:31:36.354Z,60.57
2019-03-01T03:34:06.768Z,61.07
2019-03-01T03:36:37.441Z,63.73
2019-03-01T03:39:12.112Z,66.37
2019-03-01T03:41:42.930Z,64.70
2019-03-01T03:44:13.515Z,75.67
2019-03-01T03:46:44.224Z,70.97
2019-03-01T03:49:16.470Z,68.83
2019-03-01T03:51:47.287Z,74.95
2019-03-01T03:54:18.425Z,76.03
2019-03-01T03:56:49.216Z,76.92
2019-03-01T03:59:19.910Z,75.20
2019-03-01T04:01:51.040Z,76.30
2019-03-01T04:04:21.724Z,81.20
2019-03-01T04:06:52.632Z,83.33
2019-03-01T04:09:23.347Z,83.03
2019-03-01T04:11:54.357Z,88.10
2019-03-01T04:14:24.968Z,82.20
2019-03-01T04:16:55.378Z,84.70
2019-03-01T04:19:25.960Z,85.70
2019-03-01T04:21:56.483Z,88.27
2019-03-01T04:24:27.150Z,92.27
2019-03-01T04:26:57.784Z,87.23
2019-03-01T04:29:28.281Z,93.93
2019-03-01T04:31:58.766Z,91.60
2019-03-01T04:34:29.911Z,99.20
2019-03-01T04:37:00.525Z,94.83
2019-03-01T04:39:31.318Z,88.15
2019-03-01T04:42:01.850Z,92.80
2019-03-01T04:44:33.227Z,86.23
2019-03-01T04:47:03.761Z,90.80
2019-03-01T04:49:34.456Z,89.83
2019-03-01T04:52:32.244Z,86.03
2019-03-01T04:55:02.793Z,91.00
2019-03-01T04:57:33.576Z,88.90
2019-03-01T05:00:04.654Z,93.27
2019-03-01T05:02:35.206Z,96.63
2019-03-01T05:05:06.699Z,95.53
2019-03-01T05:07:37.371Z,109.03
2019-03-01T05:10:09.045Z,95.97
2019-03-01T05:12:39.526Z,106.63
2019-03-01T05:15:12.319Z,101.97
2019-03-01T05:17:43.093Z,101.13
2019-03-01T05:20:14.341Z,97.78
2019-03-01T05:22:45.043Z,103.47
2019-03-01T05:25:15.548Z,101.40
2019-03-01T05:27:46.054Z,99.57
2019-03-01T05:30:17.136Z,101.33
2019-03-01T05:32:47.845Z,99.53
2019-03-01T05:35:18.713Z,100.53
2019-03-01T05:37:50.290Z,106.10
2019-03-01T05:40:20.683Z,98.40
2019-03-01T05:42:51.421Z,100.27
2019-03-01T05:45:23.295Z,98.57
2019-03-01T05:47:53.810Z,98.00
2019-03-01T05:50:24.441Z,96.10
2019-03-01T05:52:55.676Z,96.50
2019-03-01T05:55:26.081Z,94.43
2019-03-01T05:58:39.559Z,101.50
2019-03-01T06:01:30.326Z,99.87
2019-03-01T06:04:33.803Z,98.03
2019-03-01T06:07:44.943Z,97.90
2019-03-01T06:10:27.481Z,101.40
2019-03-01T06:13:26.001Z,106.67
2019-03-01T06:16:21.302Z,113.13
2019-03-01T06:19:16.494Z,104.77
2019-03-01T06:22:33.069Z,109.03
2019-03-01T06:25:43.049Z,106.87
2019-03-01T06:29:12.163Z,109.40
2019-03-01T06:32:16.959Z,102.43
2019-03-01T06:35:24.763Z,95.63
2019-03-01T06:38:50.089Z,94.00
2019-03-01T06:41:49.438Z,94.63
2019-03-01T06:44:39.874Z,91.55
2019-03-01T06:47:42.231Z,95.87
2019-03-01T06:50:20.549Z,71.28
2019-03-01T06:52:51.097Z,77.70
2019-03-01T06:55:44.604Z,312.10
2019-03-01T06:58:32.891Z,62.23
2019-03-01T07:01:17.201Z,56.70
2019-03-01T07:03:53.067Z,60.70
2019-03-01T07:06:23.638Z,56.95
2019-03-01T07:08:54.096Z,58.63
2019-03-01T07:11:24.539Z,59.73
2019-03-01T07:13:54.961Z,62.60
2019-03-01T07:16:25.556Z,61.70
2019-03-01T07:18:56.483Z,67.00
2019-03-01T07:21:27.076Z,68.17
2019-03-01T07:23:57.763Z,65.20
2019-03-01T07:26:28.312Z,65.77
2019-03-01T07:28:58.840Z,63.87
2019-03-01T07:31:29.465Z,67.40
2019-03-01T07:34:00.010Z,69.33
2019-03-01T07:36:30.777Z,66.40
2019-03-01T07:39:01.286Z,61.93
2019-03-01T07:41:33.491Z,64.17
2019-03-01T07:44:03.983Z,65.13
2019-03-01T07:46:34.386Z,67.33
2019-03-01T07:49:05.858Z,70.30
2019-03-01T07:51:36.415Z,67.33
2019-03-01T07:54:06.786Z,66.87
2019-03-01T07:56:39.954Z,74.60
2019-03-01T07:59:09.610Z,68.90
2019-03-01T08:01:40.082Z,65.10
2019-03-01T08:04:10.631Z,60.58
2019-03-01T08:06:41.169Z,65.03
2019-03-01T08:09:13.318Z,68.57
2019-03-01T08:11:43.855Z,67.53
2019-03-01T08:14:14.378Z,67.67
2019-03-01T08:16:44.869Z,65.40
2019-03-01T08:19:22.427Z,60.60
2019-03-01T08:21:49.845Z,61.13
2019-03-01T08:24:20.234Z,67.63
2019-03-01T08:26:50.580Z,61.73
2019-03-01T08:29:21.112Z,69.65
2019-03-01T08:31:52.727Z,72.63
2019-03-01T08:34:23.951Z,68.10
2019-03-01T08:36:54.329Z,68.10
2019-03-01T08:39:25.033Z,75.07
2019-03-01T08:42:00.143Z,66.70
2019-03-01T08:44:27.734Z,70.83
2019-03-01T08:46:58.198Z,67.43
2019-03-01T08:49:28.633Z,70.90
2019-03-01T08:52:01.514Z,68.77
2019-03-01T08:54:31.263Z,68.10
2019-03-01T08:57:01.967Z,67.27
2019-03-01T08:59:32.373Z,76.50
2019-03-01T09:02:02.891Z,69.00
2019-03-01T09:04:37.738Z,67.30
2019-03-01T09:07:05.542Z,73.90
2019-03-01T09:09:36.108Z,70.40
2019-03-01T09:12:06.809Z,71.53
2019-03-01T09:14:38.725Z,66.77
2019-03-01T09:17:09.237Z,72.90
2019-03-01T09:19:40.197Z,71.73
2019-03-01T09:22:10.666Z,70.93
2019-03-01T09:24:41.348Z,67.97
2019-03-01T09:27:11.868Z,69.97
2019-03-01T09:29:42.423Z,70.40
2019-03-01T09:32:13.061Z,67.85
2019-03-01T09:34:44.314Z,70.33
2019-03-01T09:37:14.780Z,69.90
2019-03-01T09:39:45.321Z,67.13
2019-03-01T09:42:16.344Z,60.05
2019-03-01T09:44:46.911Z,63.67
2019-03-01T09:47:17.342Z,57.25
2019-03-01T09:49:47.703Z,55.93
2019-03-01T09:52:20.372Z,49.58
2019-03-01T09:54:50.296Z,55.63
2019-03-01T09:57:20.757Z,50.45
2019-03-01T09:59:51.258Z,53.60
2019-03-01T10:02:21.697Z,50.92
2019-03-01T10:04:52.451Z,52.87
2019-03-01T10:07:22.887Z,52.20
2019-03-01T10:09:53.371Z,53.10
2019-03-01T10:12:23.806Z,50.65
2019-03-01T10:14:54.281Z,58.20
2019-03-01T10:17:24.701Z,53.10
2019-03-01T10:19:55.104Z,48.07
2019-03-01T10:22:26.844Z,55.23
2019-03-01T10:24:57.514Z,53.03
2019-03-01T10:27:27.856Z,56.33
2019-03-01T10:29:58.472Z,51.67
2019-03-01T10:32:28.916Z,54.80
2019-03-01T10:34:59.663Z,62.10
2019-03-01T10:37:31.592Z,53.97
2019-03-01T10:40:02.140Z,49.00
2019-03-01T10:42:32.736Z,51.37
2019-03-01T10:45:03.224Z,51.70
2019-03-01T10:47:34.877Z,49.38
2019-03-01T10:50:06.380Z,52.45
2019-03-01T10:52:36.810Z,48.45
2019-03-01T10:55:08.547Z,50.03
2019-03-01T10:57:39.258Z,58.37
2019-03-01T11:00:18.014Z,45.65
2019-03-01T11:02:48.768Z,53.17
2019-03-01T11:05:19.800Z,50.75
2019-03-01T11:07:51.288Z,54.47
2019-03-01T11:10:24.470Z,53.40
2019-03-01T11:12:55.097Z,55.63
2019-03-01T11:15:25.631Z,49.70
2019-03-01T11:17:56.162Z,45.77
2019-03-01T11:20:27.014Z,47.73
2019-03-01T11:22:57.782Z,50.23
2019-03-01T11:25:28.347Z,43.67
2019-03-01T11:27:58.893Z,41.02
2019-03-01T11:30:30.328Z,47.47
2019-03-01T11:33:01.155Z,45.87
2019-03-01T11:35:31.680Z,47.80
2019-03-01T11:38:02.348Z,48.77
2019-03-01T11:40:33.540Z,47.97
2019-03-01T11:43:04.327Z,52.90
2019-03-01T11:45:34.712Z,56.03
2019-03-01T11:48:05.966Z,50.63
2019-03-01T11:50:36.482Z,47.17
2019-03-01T11:53:06.980Z,44.53
2019-03-01T11:55:37.428Z,53.47
2019-03-01T11:58:07.921Z,56.50
2019-03-01T12:00:38.603Z,50.73
2019-03-01T12:03:08.978Z,57.50
2019-03-01T12:05:39.523Z,53.03
2019-03-01T12:08:09.898Z,51.57
2019-03-01T12:10:40.345Z,54.80
2019-03-01T12:13:10.837Z,47.17
2019-03-01T12:15:41.458Z,46.73
2019-03-01T12:18:11.955Z,45.85
2019-03-01T12:20:42.653Z,44.70
2019-03-01T12:23:13.286Z,44.88
2019-03-01T12:25:43.981Z,47.43
2019-03-01T12:28:14.409Z,49.08
2019-03-01T12:30:44.972Z,51.17
2019-03-01T12:33:16.603Z,46.70
2019-03-01T12:35:47.321Z,52.97
2019-03-01T12:38:17.913Z,49.23
2019-03-01T12:40:48.889Z,49.57
2019-03-01T12:43:19.367Z,52.80
2019-03-01T12:45:52.660Z,51.03
2019-03-01T12:48:25.148Z,52.63
2019-03-01T12:50:56.267Z,55.33
2019-03-01T12:53:28.212Z,52.60
2019-03-01T12:55:58.752Z,48.10
2019-03-01T12:58:29.980Z,51.47
2019-03-01T13:01:00.562Z,56.67
2019-03-01T13:03:31.211Z,56.33
2019-03-01T13:06:03.872Z,65.23
2019-03-01T13:08:35.475Z,58.50
2019-03-01T13:11:12.471Z,63.85
2019-03-01T13:13:43.137Z,68.83
2019-03-01T13:16:13.531Z,66.17
2019-03-01T13:18:47.706Z,64.37
2019-03-01T13:21:18.195Z,69.50
2019-03-01T13:23:49.392Z,65.52
2019-03-01T13:26:20.389Z,64.55
2019-03-01T13:28:53.185Z,62.90
2019-03-01T13:31:24.787Z,62.87
2019-03-01T13:33:57.133Z,62.50
2019-03-01T13:36:28.829Z,68.60
2019-03-01T13:39:00.344Z,70.53
2019-03-01T13:41:36.880Z,68.70
2019-03-01T13:44:06.459Z,70.90
2019-03-01T13:46:37.896Z,66.77
2019-03-01T13:49:08.281Z,66.20
2019-03-01T13:51:39.960Z,72.17
2019-03-01T13:54:10.628Z,70.55
2019-03-01T13:56:41.627Z,71.60
2019-03-01T13:59:13.739Z,78.30
2019-03-01T14:01:44.551Z,70.67
2019-03-01T14:04:15.029Z,73.20
2019-03-01T14:06:45.509Z,69.83
2019-03-01T14:09:16.197Z,78.43
2019-03-01T14:11:46.620Z,75.70
2019-03-01T14:14:17.025Z,83.20
2019-03-01T14:16:49.170Z,77.77
2019-03-01T14:19:19.673Z,87.20
2019-03-01T14:21:50.594Z,83.03
2019-03-01T14:24:21.366Z,82.00
2019-03-01T14:26:53.903Z,79.40
2019-03-01T14:29:24.228Z,74.87
2019-03-01T14:31:55.077Z,81.10
2019-03-01T14:34:25.608Z,78.50
2019-03-01T14:36:56.186Z,77.53
2019-03-01T14:39:26.794Z,78.07
2019-03-01T14:41:57.460Z,80.83
2019-03-01T14:44:30.741Z,77.23
2019-03-01T14:47:00.364Z,79.97
2019-03-01T14:49:31.035Z,78.93
2019-03-01T14:52:01.543Z,81.43
2019-03-01T14:54:31.914Z,77.80
2019-03-01T14:57:11.867Z,77.80
2019-03-01T15:00:14.053Z,79.80
2019-03-01T15:03:05.179Z,79.77
2019-03-01T15:05:38.654Z,82.00
2019-03-01T15:08:07.971Z,85.00
2019-03-01T15:10:38.630Z,81.77
2019-03-01T15:13:09.119Z,82.23
2019-03-01T15:15:39.590Z,91.30
2019-03-01T15:18:10.345Z,86.95
2019-03-01T15:20:42.921Z,90.28
2019-03-01T15:23:15.034Z,87.80
2019-03-01T15:25:48.550Z,84.30
2019-03-01T15:28:17.956Z,88.77
2019-03-01T15:30:50.601Z,88.63
2019-03-01T15:33:22.235Z,95.37
2019-03-01T15:35:52.864Z,94.37
2019-03-01T15:38:23.842Z,96.55
2019-03-01T15:40:55.563Z,101.23
2019-03-01T15:43:26.534Z,104.78
2019-03-01T15:45:58.950Z,103.03
2019-03-01T15:48:29.557Z,106.70
2019-03-01T15:51:02.459Z,118.73
2019-03-01T15:53:32.232Z,111.27
2019-03-01T15:56:05.929Z,110.72
2019-03-01T15:58:34.867Z,113.90
2019-03-01T16:01:11.131Z,114.63
2019-03-01T16:03:41.504Z,115.80
2019-03-01T16:06:17.513Z,116.07
2019-03-01T16:08:48.078Z,114.03
2019-03-01T16:11:21.222Z,116.55
2019-03-01T16:13:51.755Z,115.63
2019-03-01T16:16:22.407Z,124.97
2019-03-01T16:18:53.906Z,117.30
2019-03-01T16:21:24.792Z,120.63
2019-03-01T16:23:55.532Z,115.53
2019-03-01T16:26:29.831Z,119.90
2019-03-01T16:28:58.269Z,128.13
2019-03-01T16:31:31.933Z,130.53
2019-03-01T16:34:04.376Z,126.57
2019-03-01T16:36:36.147Z,132.17
2019-03-01T16:39:12.592Z,135.48
2019-03-01T16:41:43.980Z,128.60
2019-03-01T16:44:14.452Z,135.85
2019-03-01T16:46:45.055Z,135.63
2019-03-01T16:49:16.295Z,145.07
2019-03-01T16:51:46.823Z,134.87
2019-03-01T16:54:18.218Z,146.90
2019-03-01T16:56:49.303Z,140.73
2019-03-01T16:59:19.841Z,144.17
2019-03-01T17:01:50.486Z,151.57
2019-03-01T17:04:27.131Z,155.73
2019-03-01T17:06:54.761Z,152.70
2019-03-01T17:09:26.218Z,150.80
2019-03-01T17:11:56.974Z,155.80
2019-03-01T17:14:28.573Z,102.80
2019-03-01T17:17:00.748Z,134.90
2019-03-01T17:19:31.383Z,117.80
2019-03-01T17:22:02.997Z,72.87
2019-03-01T17:24:33.514Z,46.57
2019-03-01T17:27:06.888Z,44.73
2019-03-01T17:29:39.237Z,43.80
2019-03-01T17:32:09.517Z,34.80
2019-03-01T17:34:41.896Z,29.10
2019-03-01T17:37:13.307Z,30.12
2019-03-01T17:39:44.851Z,33.13
2019-03-01T17:42:17.541Z,36.98
2019-03-01T17:44:48.709Z,45.30
2019-03-01T17:47:19.466Z,40.13
2019-03-01T17:49:50.269Z,36.67
2019-03-01T17:52:21.190Z,32.67
2019-03-01T17:54:52.642Z,31.35
2019-03-01T17:57:24.262Z,35.57
2019-03-01T17:59:55.761Z,33.57
2019-03-01T18:02:26.671Z,37.20
2019-03-01T18:04:57.810Z,34.27
2019-03-01T18:07:28.564Z,32.00
2019-03-01T18:09:59.623Z,35.37
2019-03-01T18:12:30.311Z,33.60
2019-03-01T18:15:01.839Z,36.03
2019-03-01T18:17:36.241Z,33.23
2019-03-01T18:20:06.354Z,38.53
2019-03-01T18:22:36.992Z,38.87
2019-03-01T18:25:09.685Z,40.10
2019-03-01T18:27:41.149Z,43.77
2019-03-01T18:30:19.741Z,44.80
2019-03-01T18:32:50.377Z,47.23
2019-03-01T18:35:21.190Z,48.45
2019-03-01T18:37:54.896Z,46.60
2019-03-01T18:40:23.990Z,48.03
2019-03-01T18:42:54.525Z,49.53
2019-03-01T18:45:25.313Z,47.07
2019-03-01T18:47:56.091Z,44.90
2019-03-01T18:50:31.164Z,44.53
2019-03-01T18:53:03.779Z,46.20
2019-03-01T18:55:35.071Z,44.43
2019-03-01T18:58:05.996Z,42.97
2019-03-01T19:00:37.732Z,50.50
2019-03-01T19:03:08.692Z,44.23
2019-03-01T19:05:41.176Z,42.77
2019-03-01T19:08:13.648Z,52.08
2019-03-01T19:10:53.750Z,45.27
2019-03-01T19:13:16.418Z,46.77
2019-03-01T19:15:48.121Z,45.87
2019-03-01T19:18:19.181Z,45.63
2019-03-01T19:20:50.065Z,44.07
2019-03-01T19:23:20.673Z,47.80
2019-03-01T19:25:51.803Z,46.13
2019-03-01T19:28:23.574Z,45.50
2019-03-01T19:30:54.541Z,45.17
2019-03-01T19:33:27.708Z,46.33
2019-03-01T19:36:00.562Z,49.87
2019-03-01T19:38:30.721Z,51.57
2019-03-01T19:41:03.656Z,50.40
2019-03-01T19:43:34.384Z,54.30
2019-03-01T19:46:04.985Z,54.35
2019-03-01T19:48:37.295Z,54.97
2019-03-01T19:51:07.992Z,87.60
2019-03-01T19:53:39.191Z,110.40
2019-03-01T19:56:09.539Z,88.87
2019-03-01T19:58:40.618Z,72.10
2019-03-01T20:01:10.955Z,71.07
2019-03-01T20:03:42.590Z,86.43
2019-03-01T20:06:13.802Z,123.90
2019-03-01T20:08:45.707Z,110.80
2019-03-01T20:11:16.223Z,68.77
2019-03-01T20:13:46.821Z,70.80
2019-03-01T20:16:19.719Z,71.80
2019-03-01T20:18:51.293Z,67.13
2019-03-01T20:21:21.829Z,74.12
2019-03-01T20:23:52.688Z,90.13
2019-03-01T20:26:26.482Z,71.37
2019-03-01T20:28:58.730Z,65.93
2019-03-01T20:31:30.434Z,67.00
2019-03-01T20:34:02.898Z,67.72
2019-03-01T20:36:33.263Z,72.23
2019-03-01T20:39:05.727Z,69.20
2019-03-01T20:41:40.140Z,77.73
2019-03-01T20:44:10.574Z,74.37
2019-03-01T20:46:43.944Z,73.40
2019-03-01T20:49:14.392Z,80.05
2019-03-01T20:51:46.105Z,83.63
2019-03-01T20:54:16.577Z,82.40
2019-03-01T20:56:51.643Z,81.30
2019-03-01T20:59:21.512Z,76.02
2019-03-01T21:01:52.449Z,71.95
2019-03-01T21:04:24.876Z,72.17
2019-03-01T21:06:55.782Z,70.70
2019-03-01T21:09:26.371Z,67.73
2019-03-01T21:11:57.750Z,69.72
2019-03-01T21:14:31.390Z,72.23
2019-03-01T21:17:02.080Z,72.73
2019-03-01T21:19:33.291Z,71.90
2019-03-01T21:22:04.777Z,73.63
2019-03-01T21:24:37.282Z,71.93
2019-03-01T21:27:08.388Z,70.97
2019-03-01T21:29:39.134Z,73.07
2019-03-01T21:32:11.727Z,70.07
2019-03-01T21:34:42.459Z,63.57
2019-03-01T21:37:13.742Z,66.87
2019-03-01T21:39:44.597Z,66.97
2019-03-01T21:42:16.945Z,63.50
2019-03-01T21:44:48.811Z,61.43
2019-03-01T21:47:19.664Z,61.23
2019-03-01T21:49:50.448Z,58.43
2019-03-01T21:52:21.105Z,61.40
2019-03-01T21:54:52.313Z,61.40
2019-03-01T21:57:24.066Z,65.72
2019-03-01T21:59:56.734Z,74.87
2019-03-01T22:02:27.782Z,61.97
2019-03-01T22:04:58.556Z,69.40
2019-03-01T22:07:29.254Z,59.57
2019-03-01T22:10:01.407Z,58.47
2019-03-01T22:12:32.614Z,61.33
2019-03-01T22:15:04.934Z,60.45
2019-03-01T22:17:35.892Z,60.77
2019-03-01T22:20:08.986Z,67.70
2019-03-01T22:22:41.114Z,63.70
2019-03-01T22:25:11.619Z,67.93
2019-03-01T22:27:42.746Z,60.50
2019-03-01T22:30:16.081Z,62.03
2019-03-01T22:32:47.651Z,59.40
2019-03-01T22:35:20.860Z,56.45
2019-03-01T22:37:54.213Z,54.57
2019-03-01T22:40:27.885Z,56.80
2019-03-01T22:42:58.926Z,55.93
2019-03-01T22:45:29.488Z,57.70
2019-03-01T22:48:01.025Z,56.57
2019-03-01T22:50:31.628Z,56.53
2019-03-01T22:53:06.602Z,52.33
2019-03-01T22:55:37.601Z,56.00
2019-03-01T22:58:10.404Z,57.50
2019-03-01T23:01:10.336Z,53.97
2019-03-01T23:03:42.752Z,63.60
2019-03-01T23:06:14.685Z,57.10
2019-03-01T23:08:47.737Z,68.50
2019-03-01T23:11:18.293Z,58.97
2019-03-01T23:13:52.776Z,57.40
2019-03-01T23:16:23.234Z,59.63
2019-03-01T23:18:56.603Z,56.97
2019-03-01T23:21:26.232Z,64.93
2019-03-01T23:23:59.695Z,58.47
2019-03-01T23:26:29.658Z,57.90
2019-03-01T23:29:00.285Z,55.70
2019-03-01T23:31:30.997Z,58.60
2019-03-01T23:34:03.604Z,60.38
2019-03-01T23:36:35.536Z,54.43
2019-03-01T23:39:07.028Z,54.60
2019-03-01T23:41:39.169Z,50.23
2019-03-01T23:44:09.555Z,51.20
2019-03-01T23:46:40.073Z,47.83
2019-03-01T23:49:12.206Z,51.13
2019-03-01T23:51:45.331Z,54.63
2019-03-01T23:54:15.096Z,49.35
2019-03-01T23:56:45.511Z,50.57
2019-03-01T23:59:16.928Z,49.45
